Time;durP1;ratioP1;P1;durP2;ratioP2;P2;SDS_P1;SDS_P2;PMS_P1;PMS_P2;Temp;Humidity;BMP_temperature;BMP_pressure;BME280_temperature;BME280_humidity;BME280_pressure;Samples;Min_cycle;Max_cycle;Signal;HPM_P1;HPM_P2
2023/06/29 07:50:50;;;;;;;;;;;;;;;12.34;100.00;99545.66;4950522;28;20017;-85
2023/06/29 07:53:16;;;;;;;;;;;;;;;12.36;100.00;99546.44;4949577;28;20364;-86
2023/06/29 07:55:41;;;;;;;;;;;;;;;12.49;100.00;99542.19;4948732;28;19961;-86
2023/06/29 07:58:06;;;;;;;;;;;;;;;12.26;100.00;99540.75;4955177;28;19926;-87
2023/06/29 08:00:34;;;;;;;;;;;;;;;12.51;100.00;99540.31;4953598;28;20013;-88
2023/06/29 08:02:59;;;;;;;;;;;;;;;12.22;100.00;99538.34;4947052;28;19942;-86
2023/06/29 08:05:25;;;;;;;;;;;;;;;12.44;100.00;99540.72;4956494;28;19919;-86
2023/06/29 08:07:50;;;;;;;;;;;;;;;12.20;100.00;99540.25;4948335;28;19927;-85
2023/06/29 08:10:15;;;;;;;;;;;;;;;12.17;100.00;99539.47;4950705;28;20278;-87
2023/06/29 08:12:41;;;;;;;;;;;;;;;12.41;100.00;99538.22;4953821;28;19928;-87
2023/06/29 08:15:06;;;;;;;;;;;;;;;12.18;100.00;99538.50;4957075;28;19933;-87
2023/06/29 08:17:32;;;;;;;;;;;;;;;12.37;100.00;99534.88;4953632;28;20082;-87
2023/06/29 08:19:57;;;;;;;;;;;;;;;12.25;100.00;99535.53;4957141;28;19961;-86
2023/06/29 08:22:22;;;;;;;;;;;;;;;12.21;100.00;99536.66;4951032;28;20369;-87
2023/06/29 08:24:48;;;;;;;;;;;;;;;12.37;100.00;99536.69;4951959;28;19926;-86
2023/06/29 08:27:13;;;;;;;;;;;;;;;12.46;100.00;99533.50;4951867;28;19929;-87
2023/06/29 08:29:39;;;;;;;;;;;;;;;12.23;100.00;99535.63;4952439;29;19926;-86
2023/06/29 08:32:05;;;;;;;;;;;;;;;12.18;100.00;99533.19;4952347;28;19973;-87
2023/06/29 08:34:59;;;;;;;;;;;;;;;12.14;100.00;99539.63;4954729;28;19919;-88
2023/06/29 08:37:24;;;;;;;;;;;;;;;12.21;100.00;99531.34;4945752;29;20051;-86
2023/06/29 08:39:50;;;;;;;;;;;;;;;12.12;100.00;99532.69;4955472;28;20046;-88
2023/06/29 08:42:20;;;;;;;;;;;;;;;12.16;100.00;99531.59;4949679;28;20294;-88
2023/06/29 08:44:45;;;;;;;;;;;;;;;12.18;100.00;99527.88;4951133;28;19922;-88
2023/06/29 08:47:33;;;;;;;;;;;;;;;12.23;100.00;99524.13;4945707;28;19933;-91
2023/06/29 08:50:07;;;;;;;;;;;;;;;12.23;100.00;99530.31;4956084;28;19930;-90
2023/06/29 08:52:34;;;;;;;;;;;;;;;12.45;100.00;99522.03;4953576;28;19930;-90
2023/06/29 08:55:00;;;;;;;;;;;;;;;12.17;100.00;99526.19;4945646;28;20024;-91
2023/06/29 08:57:27;;;;;;;;;;;;;;;12.23;100.00;99524.13;4950679;28;20006;-90
2023/06/29 08:59:53;;;;;;;;;;;;;;;12.15;100.00;99516.59;4950295;28;19927;-89
2023/06/29 09:02:19;;;;;;;;;;;;;;;12.06;100.00;99509.97;4946256;28;20259;-89
2023/06/29 09:04:44;;;;;;;;;;;;;;;13.53;100.00;99507.97;4948425;28;19926;-88
2023/06/29 09:07:15;;;;;;;;;;;;;;;12.47;100.00;99506.00;4949490;28;20453;-89
2023/06/29 09:09:40;;;;;;;;;;;;;;;11.45;100.00;99508.66;4950178;28;19941;-89
2023/06/29 09:12:06;;;;;;;;;;;;;;;11.27;100.00;99506.00;4952608;28;19922;-89
2023/06/29 09:14:57;;;;;;;;;;;;;;;10.92;100.00;99497.16;4954316;28;19922;-89
2023/06/29 09:17:36;;;;;;;;;;;;;;;11.05;100.00;99492.13;4952919;28;19977;-90
2023/06/29 09:20:13;;;;;;;;;;;;;;;11.13;100.00;99495.22;4946232;28;19966;-88
2023/06/29 09:22:39;;;;;;;;;;;;;;;10.84;100.00;99486.09;4945876;28;20362;-89
2023/06/29 09:25:06;;;;;;;;;;;;;;;10.79;100.00;99494.25;4946503;28;19938;-87
2023/06/29 09:27:33;;;;;;;;;;;;;;;10.79;100.00;99490.75;4945649;29;20009;-87
2023/06/29 09:30:00;;;;;;;;;;;;;;;10.89;100.00;99497.31;4948638;28;20275;-84
2023/06/29 09:32:28;;;;;;;;;;;;;;;10.85;100.00;99491.31;4944716;28;19918;-88
2023/06/29 09:34:53;;;;;;;;;;;;;;;10.96;100.00;99493.44;4947554;28;20013;-88
2023/06/29 09:37:18;;;;;;;;;;;;;;;10.98;100.00;99480.97;4946441;28;20014;-88
2023/06/29 09:39:56;;;;;;;;;;;;;;;11.04;100.00;99485.97;4946222;28;19931;-88
2023/06/29 09:42:22;;;;;;;;;;;;;;;11.14;100.00;99490.81;4946397;28;19923;-87
2023/06/29 09:45:11;;;;;;;;;;;;;;;;;;;;;
2023/06/29 09:47:38;;;;;;;;;;;;;;;11.27;100.00;99487.44;4980462;23;20396;-90
2023/06/29 09:50:15;;;;;;;;;;;;;;;11.25;100.00;99493.78;4952643;29;19926;-87
2023/06/29 09:52:48;;;;;;;;;;;;;;;11.30;100.00;99493.56;4968568;28;19919;-88
2023/06/29 09:55:14;;;;;;;;;;;;;;;11.41;100.00;99483.25;4953841;29;19926;-89
2023/06/29 09:57:43;;;;;;;;;;;;;;;11.54;100.00;99478.19;4954562;29;20429;-92
2023/06/29 10:00:11;;;;;;;;;;;;;;;11.39;100.00;99480.69;4951416;29;19931;-87
2023/06/29 10:02:37;;;;;;;;;;;;;;;11.41;100.00;99483.25;4950019;28;20285;-88
2023/06/29 10:05:12;;;;;;;;;;;;;;;11.25;100.00;99484.03;4950886;29;19923;-87
2023/06/29 10:07:41;;;;;;;;;;;;;;;10.96;100.00;99484.59;4969118;28;20021;-88
2023/06/29 10:10:11;;;;;;;;;;;;;;;10.92;100.00;99486.56;4952294;29;19933;-86
2023/06/29 10:12:36;;;;;;;;;;;;;;;11.02;100.00;99481.66;4951669;29;19938;-87
2023/06/29 10:15:08;;;;;;;;;;;;;;;10.87;100.00;99477.97;4949551;29;19927;-87
2023/06/29 10:17:51;;;;;;;;;;;;;;;10.95;100.00;99473.16;4950537;29;19923;-87
2023/06/29 10:20:18;;;;;;;;;;;;;;;10.95;100.00;99475.81;4952885;29;19934;-88
2023/06/29 10:22:45;;;;;;;;;;;;;;;11.01;100.00;99479.94;4943204;29;19923;-86
2023/06/29 10:25:13;;;;;;;;;;;;;;;11.02;100.00;99482.50;4953419;29;19930;-87
2023/06/29 10:27:39;;;;;;;;;;;;;;;11.07;100.00;99482.28;4953124;28;20293;-88
2023/06/29 10:30:05;;;;;;;;;;;;;;;11.11;100.00;99472.41;4952872;28;20433;-88
2023/06/29 10:32:30;;;;;;;;;;;;;;;11.09;100.00;99483.09;4945620;29;19919;-87
2023/06/29 10:34:59;;;;;;;;;;;;;;;11.25;100.00;99477.88;4950336;29;19934;-86
2023/06/29 10:37:34;;;;;;;;;;;;;;;11.01;100.00;99475.50;4950345;29;19966;-89
2023/06/29 10:40:00;;;;;;;;;;;;;;;11.19;100.00;99478.19;4950920;29;19931;-89
2023/06/29 10:42:28;;;;;;;;;;;;;;;10.95;100.00;99481.09;4953109;29;20005;-88
2023/06/29 10:44:53;;;;;;;;;;;;;;;10.93;100.00;99476.81;4952906;29;19973;-90
2023/06/29 10:47:46;;;;;;;;;;;;;;;;;;;;;
2023/06/29 10:50:12;;;;;;;;;;;;;;;11.04;100.00;99475.34;4951728;29;20292;-87
2023/06/29 10:55:51;;;;;;;;;;;;;;;10.99;100.00;99465.91;4953523;29;19994;-88
2023/06/29 10:58:20;;;;;;;;;;;;;;;11.09;100.00;99461.88;4952788;29;19922;-87
2023/06/29 11:00:51;;;;;;;;;;;;;;;11.34;100.00;99457.97;4953685;29;19919;-88
2023/06/29 11:03:17;;;;;;;;;;;;;;;11.42;100.00;99453.13;4953690;28;19930;-91
2023/06/29 11:05:45;;;;;;;;;;;;;;;11.03;100.00;99455.06;4950652;29;19926;-88
2023/06/29 11:08:10;;;;;;;;;;;;;;;11.05;100.00;99450.53;4948958;29;19926;-86
2023/06/29 11:10:35;;;;;;;;;;;;;;;11.24;100.00;99447.81;4950116;29;19922;-87
2023/06/29 11:13:06;;;;;;;;;;;;;;;11.43;100.00;99439.78;4949513;29;19927;-83
2023/06/29 11:15:32;;;;;;;;;;;;;;;11.24;100.00;99444.31;4966805;28;20297;-88
2023/06/29 11:18:01;;;;;;;;;;;;;;;11.36;100.00;99442.81;4957659;28;19923;-89
2023/06/29 11:20:35;;;;;;;;;;;;;;;11.42;100.00;99446.03;4967358;28;19923;-86
2023/06/29 11:23:00;;;;;;;;;;;;;;;11.21;100.00;99447.13;4951109;29;20441;-88
2023/06/29 11:25:34;;;;;;;;;;;;;;;11.36;100.00;99434.88;4951126;29;20009;-88
2023/06/29 11:28:00;;;;;;;;;;;;;;;11.14;100.00;99437.78;4953912;29;20319;-83
2023/06/29 11:30:26;;;;;;;;;;;;;;;11.20;100.00;99434.78;4952463;29;19926;-90
2023/06/29 11:33:02;;;;;;;;;;;;;;;11.23;100.00;99434.63;4951259;28;19973;-91
2023/06/29 11:35:29;;;;;;;;;;;;;;;11.32;100.00;99428.88;4950942;29;19929;-88
2023/06/29 11:38:00;;;;;;;;;;;;;;;11.32;100.00;99430.66;4950355;29;20372;-88
2023/06/29 11:40:35;;;;;;;;;;;;;;;11.54;100.00;99425.97;4952513;29;19922;-91
2023/06/29 11:43:01;;;;;;;;;;;;;;;11.37;100.00;99432.13;4963746;28;19922;-88
2023/06/29 11:45:31;;;;;;;;;;;;;;;11.43;100.00;99430.97;4949622;28;19926;-94
2023/06/29 11:47:56;;;;;;;;;;;;;;;11.51;100.00;99419.97;4955174;23;19982;-86
2023/06/29 11:50:23;;;;;;;;;;;;;;;11.29;100.00;99418.41;4932880;29;19931;-86
2023/06/29 11:52:49;;;;;;;;;;;;;;;11.37;100.00;99413.56;4931856;29;19930;-85
2023/06/29 11:55:15;;;;;;;;;;;;;;;11.34;100.00;99416.38;4933583;29;19926;-88
2023/06/29 11:57:42;;;;;;;;;;;;;;;11.37;100.00;99415.38;4934006;29;20390;-87
2023/06/29 12:00:24;;;;;;;;;;;;;;;11.38;100.00;99419.75;4933177;29;19930;-85
2023/06/29 12:02:50;;;;;;;;;;;;;;;11.49;100.00;99411.19;4921726;29;20316;-88
2023/06/29 12:05:15;;;;;;;;;;;;;;;11.61;100.00;99407.91;4933672;29;19973;-88
2023/06/29 12:07:41;;;;;;;;;;;;;;;11.36;100.00;99409.22;4932407;29;19923;-84
2023/06/29 12:10:08;;;;;;;;;;;;;;;11.55;100.00;99406.47;4931462;29;20017;-85
2023/06/29 12:12:37;;;;;;;;;;;;;;;11.35;100.00;99399.53;4931479;29;19923;-88
2023/06/29 12:15:12;;;;;;;;;;;;;;;11.43;100.00;99401.78;4931698;29;19966;-88
2023/06/29 12:17:37;;;;;;;;;;;;;;;11.65;100.00;99396.22;4923755;29;19931;-87
2023/06/29 12:20:10;;;;;;;;;;;;;;;11.37;100.00;99400.31;4934377;29;19926;-88
2023/06/29 12:22:36;;;;;;;;;;;;;;;11.37;100.00;99402.94;4932554;29;19923;-88
2023/06/29 12:25:01;;;;;;;;;;;;;;;11.47;100.00;99398.03;4931834;29;19945;-86
2023/06/29 12:27:47;;;;;;;;;;;;;;;11.44;100.00;99395.56;4935537;29;20379;-90
2023/06/29 12:30:17;;;;;;;;;;;;;;;11.49;100.00;99390.84;4935119;29;19946;-88
2023/06/29 12:32:42;;;;;;;;;;;;;;;11.52;100.00;99388.03;4935381;29;19923;-88
2023/06/29 12:35:08;;;;;;;;;;;;;;;11.68;100.00;99390.75;4933591;29;20309;-88
2023/06/29 12:37:37;;;;;;;;;;;;;;;11.47;100.00;99389.22;4934571;29;19922;-94
2023/06/29 12:40:04;;;;;;;;;;;;;;;11.48;100.00;99381.16;4934760;29;19929;-83
2023/06/29 12:42:29;;;;;;;;;;;;;;;11.54;100.00;99377.34;4936823;29;19922;-90
2023/06/29 12:44:55;;;;;;;;;;;;;;;11.52;100.00;99380.09;4936258;29;19919;-88
2023/06/29 12:47:22;;;;;;;;;;;;;;;11.52;100.00;99371.25;4935911;29;20374;-87
2023/06/29 12:49:49;;;;;;;;;;;;;;;11.74;100.00;99371.84;4936101;29;19934;-85
2023/06/29 12:52:17;;;;;;;;;;;;;;;11.57;100.00;99363.91;4933862;29;19977;-86
2023/06/29 12:54:42;;;;;;;;;;;;;;;11.53;100.00;99363.22;4935657;29;19925;-87
2023/06/29 12:57:28;;;;;;;;;;;;;;;11.76;100.00;99361.97;4936126;29;19926;-88
2023/06/29 12:59:56;;;;;;;;;;;;;;;11.57;100.00;99363.91;4926577;29;20378;-85
2023/06/29 13:02:22;;;;;;;;;;;;;;;11.61;100.00;99360.16;4934591;29;19983;-86
2023/06/29 13:04:48;;;;;;;;;;;;;;;11.60;100.00;99367.25;4935420;29;19927;-88
2023/06/29 13:07:14;;;;;;;;;;;;;;;11.67;100.00;99362.47;4932672;29;19930;-86
2023/06/29 13:09:41;;;;;;;;;;;;;;;11.82;100.00;99355.47;4934569;29;19942;-88
2023/06/29 13:12:07;;;;;;;;;;;;;;;11.61;100.00;99357.50;4950353;28;19933;-86
2023/06/29 13:14:33;;;;;;;;;;;;;;;11.92;100.00;99350.56;4936914;29;19922;-86
2023/06/29 13:16:58;;;;;;;;;;;;;;;12.50;100.00;99357.03;4935563;29;19919;-86
2023/06/29 13:19:25;;;;;;;;;;;;;;;12.85;100.00;99362.94;4934152;29;19923;-87
2023/06/29 13:21:50;;;;;;;;;;;;;;;13.00;100.00;99360.31;4935259;29;20433;-87
2023/06/29 13:24:15;;;;;;;;;;;;;;;12.46;100.00;99355.47;4935068;29;20014;-86
2023/06/29 13:26:41;;;;;;;;;;;;;;;12.15;100.00;99350.09;4933891;29;19955;-87
2023/06/29 13:29:06;;;;;;;;;;;;;;;12.06;100.00;99344.47;4934002;29;19923;-87
2023/06/29 13:31:32;;;;;;;;;;;;;;;11.94;100.00;99348.66;4935336;29;19922;-90
2023/06/29 13:33:57;;;;;;;;;;;;;;;11.87;100.00;99348.13;4934085;29;20314;-86
2023/06/29 13:36:22;;;;;;;;;;;;;;;11.82;100.00;99353.69;4934972;29;20007;-87
2023/06/29 13:38:48;;;;;;;;;;;;;;;11.94;100.00;99354.81;4933342;29;19922;-86
2023/06/29 13:41:13;;;;;;;;;;;;;;;11.84;100.00;99352.72;4933136;29;19927;-85
2023/06/29 13:43:38;;;;;;;;;;;;;;;11.82;100.00;99343.06;4932677;29;19926;-86
2023/06/29 13:46:09;;;;;;;;;;;;;;;11.76;100.00;99347.88;4934802;29;19926;-91
2023/06/29 13:48:35;;;;;;;;;;;;;;;11.79;100.00;99339.69;4925966;29;20017;-85
2023/06/29 13:51:00;;;;;;;;;;;;;;;11.83;100.00;99338.59;4935466;29;19997;-86
2023/06/29 13:53:25;;;;;;;;;;;;;;;11.81;100.00;99337.84;4936075;29;19923;-85
2023/06/29 13:55:51;;;;;;;;;;;;;;;11.91;100.00;99330.22;4934869;29;19941;-85
2023/06/29 13:58:16;;;;;;;;;;;;;;;11.88;100.00;99328.59;4936544;29;20791;-86
2023/06/29 14:00:42;;;;;;;;;;;;;;;11.89;100.00;99325.00;4936058;29;19919;-86
2023/06/29 14:03:07;;;;;;;;;;;;;;;11.83;100.00;99325.34;4933179;29;19930;-85
2023/06/29 14:05:33;;;;;;;;;;;;;;;11.81;100.00;99330.72;4934592;29;19922;-86
2023/06/29 14:07:58;;;;;;;;;;;;;;;12.02;100.00;99329.66;4935738;29;19918;-85
2023/06/29 14:10:24;;;;;;;;;;;;;;;11.76;100.00;99322.16;4935714;29;20022;-86
2023/06/29 14:12:52;;;;;;;;;;;;;;;11.74;100.00;99321.41;4934317;29;20359;-88
2023/06/29 14:15:17;;;;;;;;;;;;;;;11.81;100.00;99320.09;4933523;29;19962;-85
2023/06/29 14:17:42;;;;;;;;;;;;;;;11.77;100.00;99321.22;4933200;29;19965;-85
2023/06/29 14:20:10;;;;;;;;;;;;;;;12.22;100.00;99320.56;4933973;29;20401;-86
2023/06/29 14:22:35;;;;;;;;;;;;;;;12.75;100.00;99323.69;4934538;29;19985;-84
2023/06/29 14:25:00;;;;;;;;;;;;;;;13.04;100.00;99317.50;4934374;29;20382;-85
2023/06/29 14:27:26;;;;;;;;;;;;;;;12.68;100.00;99323.19;4934743;29;19923;-86
2023/06/29 14:29:51;;;;;;;;;;;;;;;22.69;100.00;99292.09;4934712;29;20338;-85
2023/06/29 14:32:19;;;;;;;;;;;;;;;14.78;100.00;99294.06;4932806;29;19923;-88
2023/06/29 14:34:47;;;;;;;;;;;;;;;13.09;100.00;99298.59;4933978;29;20355;-86
2023/06/29 14:37:13;;;;;;;;;;;;;;;12.84;100.00;99300.09;4935565;29;19919;-86
2023/06/29 14:39:38;;;;;;;;;;;;;;;12.45;100.00;99296.19;4935513;29;19970;-87
2023/06/29 14:42:03;;;;;;;;;;;;;;;12.35;100.00;99287.03;4929193;29;20018;-84
2023/06/29 14:45:03;;;;;;;;;;;;;;;12.30;100.00;99289.09;4931734;29;19986;-91
2023/06/29 14:47:29;;;;;;;;;;;;;;;12.26;100.00;99287.56;4933971;29;19929;-85
2023/06/29 14:49:58;;;;;;;;;;;;;;;12.42;100.00;99284.88;4931318;29;19922;-92
2023/06/29 14:52:24;;;;;;;;;;;;;;;12.20;100.00;99278.16;4943034;29;19919;-88
2023/06/29 14:54:49;;;;;;;;;;;;;;;12.18;100.00;99285.34;4944986;29;20358;-85
2023/06/29 14:57:14;;;;;;;;;;;;;;;12.14;100.00;99275.84;4942583;29;19961;-86
2023/06/29 14:59:39;;;;;;;;;;;;;;;12.12;100.00;99273.25;4938127;29;19927;-84
2023/06/29 15:02:05;;;;;;;;;;;;;;;12.10;100.00;99271.66;4939110;29;20357;-86
2023/06/29 15:04:30;;;;;;;;;;;;;;;12.30;100.00;99266.06;4936972;29;19950;-87
2023/06/29 15:06:55;;;;;;;;;;;;;;;12.27;100.00;99278.63;4924115;29;19969;-84
2023/06/29 15:09:22;;;;;;;;;;;;;;;12.85;100.00;99272.53;4940444;29;19977;-85
2023/06/29 15:11:48;;;;;;;;;;;;;;;13.35;100.00;99277.53;4941804;29;19919;-88
2023/06/29 15:14:13;;;;;;;;;;;;;;;13.65;100.00;99290.72;4924564;29;20436;-88
2023/06/29 15:16:41;;;;;;;;;;;;;;;12.74;100.00;99280.31;4920783;29;19927;-89
2023/06/29 15:19:06;;;;;;;;;;;;;;;12.46;100.00;99279.31;4948290;29;19971;-87
2023/06/29 15:21:34;;;;;;;;;;;;;;;12.38;100.00;99270.94;4938825;29;19926;-90
2023/06/29 15:23:59;;;;;;;;;;;;;;;12.29;100.00;99269.66;4934013;29;19949;-89
2023/06/29 15:26:26;;;;;;;;;;;;;;;12.47;100.00;99274.84;4935460;29;20378;-87
2023/06/29 15:28:51;;;;;;;;;;;;;;;12.29;100.00;99268.81;4932858;29;20374;-88
2023/06/29 15:31:16;;;;;;;;;;;;;;;12.24;100.00;99265.53;4933106;29;19923;-87
2023/06/29 15:33:44;;;;;;;;;;;;;;;12.20;100.00;99264.00;4932633;29;19922;-90
2023/06/29 15:36:09;;;;;;;;;;;;;;;12.29;100.00;99267.00;4933319;29;19978;-87
2023/06/29 15:38:35;;;;;;;;;;;;;;;12.25;100.00;99264.59;4933351;29;19923;-89
2023/06/29 15:41:00;;;;;;;;;;;;;;;12.29;100.00;99261.69;4934650;29;20446;-89
2023/06/29 15:43:28;;;;;;;;;;;;;;;12.24;100.00;99263.75;4934852;29;19990;-91
2023/06/29 15:45:54;;;;;;;;;;;;;;;12.32;100.00;99260.66;4933794;29;19923;-87
2023/06/29 15:48:20;;;;;;;;;;;;;;;12.99;100.00;99261.06;4933131;29;20442;-86
2023/06/29 15:50:45;;;;;;;;;;;;;;;13.54;100.00;99263.94;4934711;29;19974;-86
2023/06/29 15:53:11;;;;;;;;;;;;;;;13.46;100.00;99267.06;4934553;29;19922;-86
2023/06/29 15:55:36;;;;;;;;;;;;;;;13.09;100.00;99262.22;4933295;29;19990;-86
2023/06/29 15:58:01;;;;;;;;;;;;;;;12.92;100.00;99264.19;4933210;29;20375;-84
2023/06/29 16:00:28;;;;;;;;;;;;;;;13.10;100.00;99265.75;4933085;29;20437;-87
2023/06/29 16:02:53;;;;;;;;;;;;;;;13.70;100.00;99263.81;4936489;29;20315;-88
2023/06/29 16:05:18;;;;;;;;;;;;;;;13.64;100.00;99265.03;4936813;29;19969;-85
2023/06/29 16:07:43;;;;;;;;;;;;;;;13.21;100.00;99270.38;4936728;29;19926;-87
2023/06/29 16:10:09;;;;;;;;;;;;;;;12.93;100.00;99257.94;4938045;29;19998;-87
2023/06/29 16:12:34;;;;;;;;;;;;;;;13.36;100.00;99252.66;4937961;29;19923;-85
2023/06/29 16:15:00;;;;;;;;;;;;;;;13.87;100.00;99252.94;4936762;29;19973;-84
2023/06/29 16:17:29;;;;;;;;;;;;;;;13.71;100.00;99252.22;4936461;29;20379;-87
2023/06/29 16:19:54;;;;;;;;;;;;;;;13.29;100.00;99259.25;4937462;29;19945;-87
2023/06/29 16:22:20;;;;;;;;;;;;;;;13.93;100.00;99255.19;4936393;29;20363;-86
2023/06/29 16:24:45;;;;;;;;;;;;;;;13.96;100.00;99252.34;4937938;29;19929;-86
2023/06/29 16:27:15;;;;;;;;;;;;;;;13.92;100.00;99250.81;4937722;29;19926;-91
2023/06/29 16:29:40;;;;;;;;;;;;;;;13.14;100.00;99255.75;4936228;29;19923;-85
2023/06/29 16:32:05;;;;;;;;;;;;;;;13.07;100.00;99248.16;4936289;29;19923;-87
2023/06/29 16:34:31;;;;;;;;;;;;;;;13.27;100.00;99248.72;4934875;29;20042;-88
2023/06/29 16:36:56;;;;;;;;;;;;;;;13.65;100.00;99253.47;4937570;29;19930;-86
2023/06/29 16:39:21;;;;;;;;;;;;;;;13.91;100.00;99250.91;4936177;29;19919;-87
2023/06/29 16:41:46;;;;;;;;;;;;;;;13.53;100.00;99247.13;4937330;29;19929;-87
2023/06/29 16:44:12;;;;;;;;;;;;;;;13.10;100.00;99241.81;4937295;29;19918;-89
2023/06/29 16:46:37;;;;;;;;;;;;;;;12.94;100.00;99251.66;4937141;29;19922;-87
2023/06/29 16:49:03;;;;;;;;;;;;;;;12.96;100.00;99247.13;4935162;29;19922;-87
2023/06/29 16:51:29;;;;;;;;;;;;;;;12.71;100.00;99237.97;4937454;29;19929;-86
2023/06/29 16:53:54;;;;;;;;;;;;;;;12.63;100.00;99233.09;4935876;29;19926;-86
2023/06/29 16:56:28;;;;;;;;;;;;;;;12.76;100.00;99238.53;4937804;29;19919;-92
2023/06/29 16:58:54;;;;;;;;;;;;;;;12.56;100.00;99238.88;4937072;29;19962;-86
2023/06/29 17:01:19;;;;;;;;;;;;;;;13.12;100.00;99247.03;4937017;29;19950;-86
2023/06/29 17:03:45;;;;;;;;;;;;;;;13.58;100.00;99245.00;4934658;29;19919;-88
2023/06/29 17:06:10;;;;;;;;;;;;;;;13.90;100.00;99249.22;4937041;29;19974;-87
2023/06/29 17:08:37;;;;;;;;;;;;;;;13.12;100.00;99247.88;4935720;29;19993;-88
2023/06/29 17:11:02;;;;;;;;;;;;;;;12.88;100.00;99245.78;4935820;29;19954;-89
2023/06/29 17:13:28;;;;;;;;;;;;;;;12.84;100.00;99246.03;4935132;29;19922;-86
2023/06/29 17:15:53;;;;;;;;;;;;;;;18.20;100.00;99230.09;4936841;29;20022;-89
2023/06/29 17:18:18;;;;;;;;;;;;;;;13.54;100.00;99230.19;4934534;29;19919;-89
2023/06/29 17:20:43;;;;;;;;;;;;;;;13.06;100.00;99234.94;4935599;29;20002;-89
2023/06/29 17:23:10;;;;;;;;;;;;;;;13.37;100.00;99236.59;4936716;29;19953;-88
2023/06/29 17:25:43;;;;;;;;;;;;;;;13.71;100.00;99244.25;4934562;29;19923;-86
2023/06/29 17:28:15;;;;;;;;;;;;;;;13.69;100.00;99251.44;4934958;29;19923;-94
2023/06/29 17:30:41;;;;;;;;;;;;;;;13.07;100.00;99249.97;4935389;29;19925;-88
2023/06/29 17:33:06;;;;;;;;;;;;;;;12.97;100.00;99243.50;4935497;29;20001;-89
2023/06/29 17:35:32;;;;;;;;;;;;;;;12.84;100.00;99243.38;4936452;29;19919;-90
2023/06/29 17:37:57;;;;;;;;;;;;;;;12.79;100.00;99240.16;4935375;29;19919;-87
2023/06/29 17:40:22;;;;;;;;;;;;;;;12.75;100.00;99239.50;4936626;29;20305;-87
2023/06/29 17:42:50;;;;;;;;;;;;;;;12.73;100.00;99241.38;4935740;29;20585;-87
2023/06/29 17:45:17;;;;;;;;;;;;;;;12.68;100.00;99240.81;4935548;29;20000;-89
2023/06/29 17:47:42;;;;;;;;;;;;;;;13.34;100.00;99246.56;4933472;29;20402;-88
2023/06/29 17:50:08;;;;;;;;;;;;;;;13.86;100.00;99251.22;4934068;29;19923;-89
2023/06/29 17:52:33;;;;;;;;;;;;;;;13.78;100.00;99256.19;4934939;29;19926;-89
2023/06/29 17:54:58;;;;;;;;;;;;;;;13.14;100.00;99247.78;4936434;29;19926;-89
2023/06/29 17:57:23;;;;;;;;;;;;;;;12.86;100.00;99254.78;4934921;29;19966;-88
2023/06/29 17:59:48;;;;;;;;;;;;;;;12.79;100.00;99245.47;4936582;29;19925;-89
2023/06/29 18:02:14;;;;;;;;;;;;;;;12.82;100.00;99239.97;4934631;29;20272;-91
2023/06/29 18:04:39;;;;;;;;;;;;;;;12.66;100.00;99243.56;4934236;29;19925;-90
2023/06/29 18:07:06;;;;;;;;;;;;;;;12.66;100.00;99235.56;4936645;29;19966;-90
2023/06/29 18:09:41;;;;;;;;;;;;;;;12.62;100.00;99233.19;4936697;29;20392;-91
2023/06/29 18:12:06;;;;;;;;;;;;;;;12.49;100.00;99236.59;4935084;29;19950;-86
2023/06/29 18:14:32;;;;;;;;;;;;;;;12.63;100.00;99243.72;4934665;29;19927;-88
2023/06/29 18:16:57;;;;;;;;;;;;;;;13.17;100.00;99240.47;4936575;29;20268;-88
2023/06/29 18:19:23;;;;;;;;;;;;;;;12.76;100.00;99240.34;4933553;29;20319;-90
2023/06/29 18:21:48;;;;;;;;;;;;;;;12.71;100.00;99243.28;4934506;29;20418;-87
2023/06/29 18:24:14;;;;;;;;;;;;;;;12.66;100.00;99250.69;4934026;29;19926;-89
2023/06/29 18:26:39;;;;;;;;;;;;;;;12.69;100.00;99245.19;4934452;29;19918;-89
2023/06/29 18:29:05;;;;;;;;;;;;;;;12.76;100.00;99250.97;4935715;29;19974;-89
2023/06/29 18:31:30;;;;;;;;;;;;;;;12.53;100.00;99243.44;4935919;29;20013;-90
2023/06/29 18:33:56;;;;;;;;;;;;;;;12.54;100.00;99242.50;4934581;29;19930;-87
2023/06/29 18:36:21;;;;;;;;;;;;;;;12.57;100.00;99246.75;4933527;29;19970;-89
2023/06/29 18:38:47;;;;;;;;;;;;;;;12.57;100.00;99251.22;4934274;29;19994;-87
2023/06/29 18:41:31;;;;;;;;;;;;;;;12.57;100.00;99249.41;4934046;29;19930;-86
2023/06/29 18:44:12;;;;;;;;;;;;;;;12.61;100.00;99248.28;4935383;29;19919;-90
2023/06/29 18:46:38;;;;;;;;;;;;;;;12.78;100.00;99244.63;4941926;29;20397;-88
2023/06/29 18:49:10;;;;;;;;;;;;;;;12.46;100.00;99243.88;4932711;29;20286;-88
2023/06/29 18:51:37;;;;;;;;;;;;;;;12.40;100.00;99247.78;4933757;29;19966;-87
2023/06/29 18:54:03;;;;;;;;;;;;;;;14.59;100.00;99233.94;4934812;29;20278;-88
2023/06/29 18:56:28;;;;;;;;;;;;;;;13.35;100.00;99242.94;4935114;29;19926;-89
2023/06/29 18:58:54;;;;;;;;;;;;;;;12.78;100.00;99246.41;4953661;23;20023;-88
2023/06/29 19:01:39;;;;;;;;;;;;;;;12.86;100.00;99245.00;4965440;23;20373;-87
2023/06/29 19:04:05;;;;;;;;;;;;;;;12.61;100.00;99242.97;4951016;29;19922;-88
2023/06/29 19:06:30;;;;;;;;;;;;;;;12.55;100.00;99243.34;4952968;28;20369;-85
2023/06/29 19:08:55;;;;;;;;;;;;;;;12.57;100.00;99244.09;4954674;28;20429;-86
2023/06/29 19:11:21;;;;;;;;;;;;;;;12.53;100.00;99251.41;4954191;28;19926;-86
2023/06/29 19:13:47;;;;;;;;;;;;;;;12.51;100.00;99248.00;4952786;29;19922;-88
2023/06/29 19:16:12;;;;;;;;;;;;;;;12.56;100.00;99249.50;4952799;29;19925;-88
2023/06/29 19:18:38;;;;;;;;;;;;;;;12.64;100.00;99245.47;4951384;28;19919;-88
2023/06/29 19:21:32;;;;;;;;;;;;;;;12.41;100.00;99252.13;4952950;29;20262;-93
2023/06/29 19:23:58;;;;;;;;;;;;;;;12.49;100.00;99247.25;4968689;28;19925;-89
2023/06/29 19:26:24;;;;;;;;;;;;;;;12.42;100.00;99248.53;4954309;28;19971;-88
2023/06/29 19:28:51;;;;;;;;;;;;;;;12.50;100.00;99251.59;4953995;28;20314;-89
2023/06/29 19:31:17;;;;;;;;;;;;;;;12.64;100.00;99244.59;4953185;29;20405;-85
2023/06/29 19:33:42;;;;;;;;;;;;;;;12.36;100.00;99243.56;4952637;28;19923;-89
2023/06/29 19:36:10;;;;;;;;;;;;;;;12.42;100.00;99251.19;4954898;28;19930;-88
2023/06/29 19:38:35;;;;;;;;;;;;;;;12.38;100.00;99252.34;4957817;28;19919;-86
2023/06/29 19:41:00;;;;;;;;;;;;;;;12.39;100.00;99251.38;4957867;28;20413;-88
2023/06/29 19:43:26;;;;;;;;;;;;;;;12.40;100.00;99255.75;4994623;23;19927;-90
2023/06/29 19:45:51;;;;;;;;;;;;;;;12.43;100.00;99252.91;4946603;29;19973;-87
2023/06/29 19:48:16;;;;;;;;;;;;;;;12.41;100.00;99254.78;4947613;29;19961;-87
2023/06/29 19:50:42;;;;;;;;;;;;;;;12.43;100.00;99252.91;4947607;29;19918;-87
2023/06/29 19:53:07;;;;;;;;;;;;;;;12.37;100.00;99255.06;4947776;29;19927;-86
2023/06/29 19:55:35;;;;;;;;;;;;;;;12.31;100.00;99256.28;4946866;29;19926;-88
2023/06/29 19:58:00;;;;;;;;;;;;;;;12.29;100.00;99259.03;4947769;29;19958;-88
2023/06/29 20:00:25;;;;;;;;;;;;;;;12.36;100.00;99270.13;4946353;29;20430;-85
2023/06/29 20:03:11;;;;;;;;;;;;;;;12.32;100.00;99273.94;4944983;29;19942;-91
2023/06/29 20:05:36;;;;;;;;;;;;;;;12.51;100.00;99271.06;4941362;29;19923;-85
2023/06/29 20:08:02;;;;;;;;;;;;;;;12.37;100.00;99271.88;4947515;29;19926;-87
2023/06/29 20:10:34;;;;;;;;;;;;;;;12.31;100.00;99272.22;4947522;29;19923;-92
2023/06/29 20:13:07;;;;;;;;;;;;;;;12.31;100.00;99282.84;4943778;29;20472;-86
2023/06/29 20:15:43;;;;;;;;;;;;;;;12.30;100.00;99287.31;4948440;29;20390;-88
2023/06/29 20:18:17;;;;;;;;;;;;;;;12.30;100.00;99291.75;4946666;28;20290;-94
2023/06/29 20:21:13;;;;;;;;;;;;;;;12.33;100.00;99291.56;4948703;29;20050;-95
2023/06/29 20:23:39;;;;;;;;;;;;;;;12.42;100.00;99301.66;4946260;29;20286;-88
2023/06/29 20:26:07;;;;;;;;;;;;;;;12.41;100.00;99305.25;4945316;29;19923;-89
2023/06/29 20:28:32;;;;;;;;;;;;;;;12.47;100.00;99299.59;4947610;29;19922;-90
2023/06/29 20:30:57;;;;;;;;;;;;;;;13.03;100.00;99293.66;4945848;29;20401;-86
2023/06/29 20:33:23;;;;;;;;;;;;;;;13.35;100.00;99306.81;4944679;29;19925;-86